Terminal Aerodrome Forecast
Issued by NWS Cleveland, OH

Home | Current Version | Previous Version | Text Only | Print | Product List | Glossary Off
Versions: 1 2 3 4 5 6 7 8 9 10 11 12 13 14 15 16 17 18 19 20 21 22 23 24 25

000
FTUS41 KCLE 291900 AAA
TAFYNG
TAF AMD
KYNG 291906Z 2919/3018 19010KT P6SM BKN005 OVC012
      TEMPO 2922/2924 2SM -RASN OVC006
     FM300000 24013G23KT 2SM -SHSN OVC008
      TEMPO 3000/3003 3/4SM -SN BR OVC002
     FM300700 27012G22KT 3SM -SN BKN006 OVC012
     FM301200 29013G24KT 5SM -SHSN OVC010=

USA.gov is the U.S. government's official web portal to all federal, state and local government web resources and services.